Bad River Indian Reservation, Wisconsin
Current Conditions -  °F | °C
As of 4:53 AM on Tuesday 21 Oct 2014 (Local Time) from KASX Reporting Station
Overcast Overcast  
Wind Chill: 40°   Ceiling: 2900
Heat Index: 43°   Visibility: 10mi
Dew Point: 37°   Wind: 5mph
Humidity: 80%   Direction: 50°NE
Pressure: 30.2"   Gusts: NA
Location:  46.543°N, 90.8706°W
Report Text: KASX 210953Z AUTO 05004KT 10SM OVC029 06/03 A3020 RMK AO2 SLP232 T00610028
Loading
Personal Weather Stations






























Interactive Weather Map New forecast layout! Learn more

10-Day Weather Forecast

Advertisements
Track Severe Weather on mobile